CFG63 LPPT-LPPR
Flight info
| Callsign | CFG63 |
|---|---|
| Flight time | 0h 39m |
| Altitude | 22000 |
| Route | IXIDA DCT ABLEG |
| Aircraft | A339/H-SADE1E2E3GHIJ3J5M1P2RWXY/LB2D1 |
Departure
| Time | 2026-05-05 14:46 |
|---|---|
| Airport | Lisbon Humberto Delgado Airport (LPPT) |
Arrival
| Time | 2026-05-05 15:26 |
|---|---|
| Airport | Francisco de Sá Carneiro Airport (LPPR) |
| Time | Latitude | Longitude | Altitude | Speed | Heading |
|---|---|---|---|---|---|
| 2026-05-05 14:16 | 38.77610 | -9.13196 | 343 ft | 0 kts | 78° |
| 2026-05-05 14:31 | 38.77610 | -9.13199 | 343 ft | 2 kts | 78° |
| 2026-05-05 14:31 | 38.77605 | -9.13230 | 354 ft | 4 kts | 65° |
| 2026-05-05 14:32 | 38.77603 | -9.13239 | 354 ft | 0 kts | 57° |
| 2026-05-05 14:32 | 38.77610 | -9.13192 | 343 ft | 0 kts | 78° |
| 2026-05-05 14:34 | 38.77608 | -9.13210 | 354 ft | 4 kts | 77° |
| 2026-05-05 14:34 | 38.77602 | -9.13242 | 354 ft | 4 kts | 54° |
| 2026-05-05 14:35 | 38.77589 | -9.13260 | 354 ft | 4 kts | 64° |
| 2026-05-05 14:35 | 38.77582 | -9.13288 | 352 ft | 4 kts | 96° |
| 2026-05-05 14:35 | 38.77580 | -9.13309 | 354 ft | 4 kts | 143° |
| 2026-05-05 14:35 | 38.77597 | -9.13319 | 355 ft | 4 kts | 178° |
| 2026-05-05 14:36 | 38.77617 | -9.13320 | 351 ft | 0 kts | 180° |
| 2026-05-05 14:36 | 38.77600 | -9.13320 | 355 ft | 4 kts | 181° |
| 2026-05-05 14:36 | 38.77573 | -9.13318 | 355 ft | 4 kts | 174° |
| 2026-05-05 14:36 | 38.77556 | -9.13313 | 352 ft | 0 kts | 168° |
| 2026-05-05 14:38 | 38.77549 | -9.13311 | 353 ft | 3 kts | 168° |
| 2026-05-05 14:39 | 38.77521 | -9.13302 | 354 ft | 5 kts | 165° |
| 2026-05-05 14:39 | 38.77472 | -9.13286 | 346 ft | 9 kts | 166° |
| 2026-05-05 14:39 | 38.77404 | -9.13271 | 352 ft | 11 kts | 172° |
| 2026-05-05 14:39 | 38.77335 | -9.13303 | 351 ft | 11 kts | 227° |
| 2026-05-05 14:40 | 38.77312 | -9.13382 | 352 ft | 9 kts | 254° |
| 2026-05-05 14:40 | 38.77302 | -9.13450 | 355 ft | 7 kts | 261° |
| 2026-05-05 14:40 | 38.77294 | -9.13505 | 359 ft | 6 kts | 261° |
| 2026-05-05 14:40 | 38.77288 | -9.13552 | 358 ft | 5 kts | 261° |
| 2026-05-05 14:41 | 38.77279 | -9.13608 | 356 ft | 11 kts | 257° |
| 2026-05-05 14:41 | 38.77257 | -9.13739 | 362 ft | 16 kts | 255° |
| 2026-05-05 14:41 | 38.77187 | -9.13878 | 364 ft | 24 kts | 208° |
| 2026-05-05 14:41 | 38.76986 | -9.13967 | 363 ft | 34 kts | 209° |
| 2026-05-05 14:42 | 38.76870 | -9.14036 | 357 ft | 9 kts | 199° |
| 2026-05-05 14:42 | 38.76841 | -9.14052 | 358 ft | 15 kts | 202° |
| 2026-05-05 14:43 | 38.76780 | -9.14084 | 356 ft | 24 kts | 202° |
| 2026-05-05 14:43 | 38.76655 | -9.14150 | 350 ft | 15 kts | 195° |
| 2026-05-05 14:43 | 38.76600 | -9.14226 | 354 ft | 11 kts | 252° |
| 2026-05-05 14:43 | 38.76597 | -9.14242 | 351 ft | 3 kts | 256° |
| 2026-05-05 14:44 | 38.76597 | -9.14245 | 350 ft | 0 kts | 259° |
| 2026-05-05 14:44 | 38.76597 | -9.14247 | 349 ft | 2 kts | 259° |
| 2026-05-05 14:45 | 38.76613 | -9.14320 | 348 ft | 15 kts | 287° |
| 2026-05-05 14:45 | 38.76682 | -9.14364 | 348 ft | 3 kts | 9° |
| 2026-05-05 14:45 | 38.76686 | -9.14363 | 347 ft | 0 kts | 9° |
| 2026-05-05 14:46 | 38.76856 | -9.14288 | 354 ft | 69 kts | 22° |
| 2026-05-05 14:46 | 38.77558 | -9.13910 | 372 ft | 146 kts | 22° |
| 2026-05-05 14:46 | 38.78590 | -9.13338 | 825 ft | 170 kts | 22° |
| 2026-05-05 14:46 | 38.79661 | -9.12686 | 1747 ft | 170 kts | 20° |
| 2026-05-05 14:47 | 38.80704 | -9.11982 | 2522 ft | 174 kts | 21° |
| 2026-05-05 14:47 | 38.81783 | -9.11222 | 3409 ft | 179 kts | 24° |
| 2026-05-05 14:47 | 38.82882 | -9.10442 | 4243 ft | 185 kts | 26° |
| 2026-05-05 14:47 | 38.84004 | -9.09619 | 5167 ft | 186 kts | 27° |
| 2026-05-05 14:48 | 38.85117 | -9.08757 | 6148 ft | 185 kts | 27° |
| 2026-05-05 14:48 | 38.86228 | -9.07853 | 6940 ft | 191 kts | 30° |
| 2026-05-05 14:48 | 38.87342 | -9.06907 | 7664 ft | 198 kts | 30° |
| 2026-05-05 14:48 | 38.88426 | -9.05930 | 8808 ft | 170 kts | 31° |
| 2026-05-05 14:49 | 38.89292 | -9.05067 | 9845 ft | 169 kts | 31° |
| 2026-05-05 14:49 | 38.90320 | -9.04070 | 10070 ft | 196 kts | 31° |
| 2026-05-05 14:49 | 38.91485 | -9.02989 | 10411 ft | 217 kts | 31° |
| 2026-05-05 14:49 | 38.92746 | -9.01749 | 10666 ft | 240 kts | 34° |
| 2026-05-05 14:50 | 38.94085 | -9.00303 | 10912 ft | 262 kts | 37° |
| 2026-05-05 14:50 | 38.95508 | -8.98675 | 11102 ft | 285 kts | 38° |
| 2026-05-05 14:50 | 38.97012 | -8.96913 | 11308 ft | 308 kts | 38° |
| 2026-05-05 14:50 | 38.98641 | -8.94995 | 11505 ft | 328 kts | 38° |
| 2026-05-05 14:51 | 39.00367 | -8.92966 | 11831 ft | 341 kts | 39° |
| 2026-05-05 14:51 | 39.02129 | -8.90891 | 12440 ft | 345 kts | 38° |
| 2026-05-05 14:51 | 39.03914 | -8.88795 | 13058 ft | 349 kts | 38° |
| 2026-05-05 14:51 | 39.05724 | -8.86674 | 13647 ft | 354 kts | 38° |
| 2026-05-05 14:52 | 39.07690 | -8.84794 | 14168 ft | 351 kts | 22° |
| 2026-05-05 14:52 | 39.09987 | -8.83850 | 14724 ft | 346 kts | 7° |
| 2026-05-05 14:52 | 39.12367 | -8.83285 | 15242 ft | 349 kts | 6° |
| 2026-05-05 14:52 | 39.14741 | -8.82743 | 15796 ft | 353 kts | 6° |
| 2026-05-05 14:53 | 39.17166 | -8.82178 | 16314 ft | 357 kts | 6° |
| 2026-05-05 14:53 | 39.19612 | -8.81590 | 16857 ft | 360 kts | 6° |
| 2026-05-05 14:53 | 39.22084 | -8.80984 | 17401 ft | 363 kts | 7° |
| 2026-05-05 14:53 | 39.24581 | -8.80367 | 17926 ft | 367 kts | 7° |
| 2026-05-05 14:54 | 39.27085 | -8.79744 | 18605 ft | 366 kts | 6° |
| 2026-05-05 14:54 | 39.29601 | -8.79119 | 19043 ft | 370 kts | 6° |
| 2026-05-05 14:54 | 39.32142 | -8.78490 | 19516 ft | 373 kts | 6° |
| 2026-05-05 14:54 | 39.34709 | -8.77854 | 19904 ft | 378 kts | 6° |
| 2026-05-05 14:55 | 39.37254 | -8.77223 | 20036 ft | 377 kts | 6° |
| 2026-05-05 14:55 | 39.39831 | -8.76583 | 20070 ft | 377 kts | 6° |
| 2026-05-05 14:55 | 39.42411 | -8.75942 | 20070 ft | 378 kts | 6° |
| 2026-05-05 14:55 | 39.44993 | -8.75301 | 20070 ft | 378 kts | 6° |
| 2026-05-05 14:56 | 39.47574 | -8.74660 | 20069 ft | 377 kts | 6° |
| 2026-05-05 14:56 | 39.50137 | -8.74022 | 20073 ft | 374 kts | 6° |
| 2026-05-05 14:56 | 39.52697 | -8.73385 | 20076 ft | 375 kts | 6° |
| 2026-05-05 14:56 | 39.55260 | -8.72748 | 20078 ft | 374 kts | 6° |
| 2026-05-05 14:57 | 39.57786 | -8.72119 | 20082 ft | 375 kts | 6° |
| 2026-05-05 14:57 | 39.60345 | -8.71482 | 20096 ft | 374 kts | 6° |
| 2026-05-05 14:57 | 39.62888 | -8.70846 | 20087 ft | 372 kts | 6° |
| 2026-05-05 14:57 | 39.65431 | -8.70212 | 20089 ft | 372 kts | 6° |
| 2026-05-05 14:58 | 39.67976 | -8.69577 | 20090 ft | 372 kts | 5° |
| 2026-05-05 14:58 | 39.70521 | -8.68941 | 20107 ft | 372 kts | 6° |
| 2026-05-05 14:58 | 39.73055 | -8.68305 | 20097 ft | 369 kts | 5° |
| 2026-05-05 14:58 | 39.75580 | -8.67674 | 20092 ft | 370 kts | 5° |
| 2026-05-05 14:59 | 39.78110 | -8.67042 | 20096 ft | 370 kts | 5° |
| 2026-05-05 14:59 | 39.80607 | -8.66417 | 20091 ft | 370 kts | 5° |
| 2026-05-05 14:59 | 39.83137 | -8.65782 | 20094 ft | 370 kts | 5° |
| 2026-05-05 14:59 | 39.85661 | -8.65147 | 20095 ft | 370 kts | 5° |
| 2026-05-05 15:00 | 39.88192 | -8.64512 | 20092 ft | 370 kts | 5° |
| 2026-05-05 15:00 | 39.89869 | -8.64091 | 20089 ft | 370 kts | 5° |
| 2026-05-05 15:00 | 39.93246 | -8.63241 | 20116 ft | 370 kts | 5° |
| 2026-05-05 15:00 | 39.95761 | -8.62606 | 20094 ft | 366 kts | 5° |
| 2026-05-05 15:01 | 39.98258 | -8.61976 | 20076 ft | 366 kts | 5° |
| 2026-05-05 15:01 | 40.00763 | -8.61346 | 20088 ft | 367 kts | 5° |
| 2026-05-05 15:01 | 40.03236 | -8.60722 | 20088 ft | 367 kts | 5° |
| 2026-05-05 15:01 | 40.05744 | -8.60090 | 20067 ft | 367 kts | 5° |
| 2026-05-05 15:02 | 40.08264 | -8.59456 | 20036 ft | 376 kts | 5° |
| 2026-05-05 15:02 | 40.10859 | -8.58806 | 19867 ft | 380 kts | 5° |
| 2026-05-05 15:02 | 40.13435 | -8.58150 | 19627 ft | 376 kts | 5° |
| 2026-05-05 15:02 | 40.15998 | -8.57496 | 19399 ft | 373 kts | 5° |
| 2026-05-05 15:03 | 40.18528 | -8.56851 | 19162 ft | 369 kts | 5° |
| 2026-05-05 15:03 | 40.21046 | -8.56211 | 18924 ft | 368 kts | 5° |
| 2026-05-05 15:03 | 40.23551 | -8.55576 | 18690 ft | 366 kts | 5° |
| 2026-05-05 15:03 | 40.26013 | -8.54952 | 18462 ft | 364 kts | 5° |
| 2026-05-05 15:04 | 40.28495 | -8.54321 | 18201 ft | 362 kts | 5° |
| 2026-05-05 15:04 | 40.30967 | -8.53693 | 17937 ft | 361 kts | 6° |
| 2026-05-05 15:04 | 40.33431 | -8.53066 | 17674 ft | 360 kts | 6° |
| 2026-05-05 15:04 | 40.35888 | -8.52440 | 17407 ft | 359 kts | 6° |
| 2026-05-05 15:05 | 40.40773 | -8.51194 | 16885 ft | 357 kts | 6° |
| 2026-05-05 15:05 | 40.43208 | -8.50572 | 16483 ft | 356 kts | 6° |
| 2026-05-05 15:05 | 40.44818 | -8.50162 | 16130 ft | 355 kts | 6° |
| 2026-05-05 15:06 | 40.47223 | -8.49546 | 15594 ft | 349 kts | 6° |
| 2026-05-05 15:06 | 40.50324 | -8.48748 | 14902 ft | 338 kts | 7° |
| 2026-05-05 15:06 | 40.52604 | -8.48163 | 14395 ft | 330 kts | 7° |
| 2026-05-05 15:06 | 40.54088 | -8.47783 | 14066 ft | 326 kts | 7° |
| 2026-05-05 15:07 | 40.56290 | -8.47220 | 13546 ft | 319 kts | 7° |
| 2026-05-05 15:07 | 40.58488 | -8.46660 | 13057 ft | 334 kts | 7° |
| 2026-05-05 15:07 | 40.60862 | -8.46063 | 12516 ft | 358 kts | 8° |
| 2026-05-05 15:07 | 40.63299 | -8.45439 | 12066 ft | 351 kts | 8° |
| 2026-05-05 15:08 | 40.65624 | -8.44832 | 11837 ft | 329 kts | 8° |
| 2026-05-05 15:08 | 40.68458 | -8.44087 | 11543 ft | 298 kts | 8° |
| 2026-05-05 15:08 | 40.69795 | -8.43738 | 11393 ft | 282 kts | 8° |
| 2026-05-05 15:08 | 40.71677 | -8.43451 | 10971 ft | 267 kts | 355° |
| 2026-05-05 15:09 | 40.73516 | -8.43891 | 10537 ft | 269 kts | 340° |
| 2026-05-05 15:09 | 40.75132 | -8.44935 | 10095 ft | 256 kts | 329° |
| 2026-05-05 15:09 | 40.76634 | -8.46078 | 9631 ft | 243 kts | 330° |
| 2026-05-05 15:09 | 40.78077 | -8.47128 | 9166 ft | 232 kts | 331° |
| 2026-05-05 15:10 | 40.79499 | -8.48128 | 8681 ft | 230 kts | 332° |
| 2026-05-05 15:10 | 40.80905 | -8.49097 | 8231 ft | 226 kts | 332° |
| 2026-05-05 15:10 | 40.82283 | -8.50043 | 7774 ft | 220 kts | 332° |
| 2026-05-05 15:10 | 40.83623 | -8.50965 | 7326 ft | 216 kts | 332° |
| 2026-05-05 15:11 | 40.84946 | -8.51872 | 6877 ft | 213 kts | 332° |
| 2026-05-05 15:11 | 40.86242 | -8.52766 | 6450 ft | 213 kts | 332° |
| 2026-05-05 15:11 | 40.87541 | -8.53660 | 6148 ft | 205 kts | 332° |
| 2026-05-05 15:11 | 40.88764 | -8.54505 | 6060 ft | 196 kts | 332° |
| 2026-05-05 15:12 | 40.89983 | -8.55349 | 6471 ft | 199 kts | 332° |
| 2026-05-05 15:12 | 40.91218 | -8.56211 | 7135 ft | 211 kts | 332° |
| 2026-05-05 15:12 | 40.92595 | -8.57167 | 6928 ft | 230 kts | 332° |
| 2026-05-05 15:12 | 40.94023 | -8.58154 | 6556 ft | 236 kts | 332° |
| 2026-05-05 15:13 | 40.95978 | -8.59503 | 6091 ft | 236 kts | 332° |
| 2026-05-05 15:13 | 40.96916 | -8.60149 | 6053 ft | 223 kts | 332° |
| 2026-05-05 15:13 | 40.98296 | -8.61103 | 6071 ft | 227 kts | 332° |
| 2026-05-05 15:13 | 40.99793 | -8.61842 | 6087 ft | 234 kts | 347° |
| 2026-05-05 15:14 | 41.01416 | -8.62209 | 6063 ft | 237 kts | 349° |
| 2026-05-05 15:14 | 41.02987 | -8.62795 | 6092 ft | 238 kts | 330° |
| 2026-05-05 15:14 | 41.04170 | -8.64252 | 6086 ft | 231 kts | 303° |
| 2026-05-05 15:14 | 41.04646 | -8.66323 | 6076 ft | 242 kts | 275° |
| 2026-05-05 15:15 | 41.04270 | -8.68469 | 6054 ft | 246 kts | 245° |
| 2026-05-05 15:15 | 41.03121 | -8.70191 | 5837 ft | 256 kts | 217° |
| 2026-05-05 15:15 | 41.01447 | -8.70996 | 5589 ft | 262 kts | 188° |
| 2026-05-05 15:15 | 40.99686 | -8.70671 | 5341 ft | 260 kts | 157° |
| 2026-05-05 15:16 | 40.98223 | -8.69303 | 5103 ft | 259 kts | 134° |
| 2026-05-05 15:16 | 40.96891 | -8.67673 | 4840 ft | 261 kts | 141° |
| 2026-05-05 15:16 | 40.95355 | -8.66405 | 4642 ft | 259 kts | 156° |
| 2026-05-05 15:16 | 40.93707 | -8.65612 | 4583 ft | 245 kts | 166° |
| 2026-05-05 15:17 | 40.92145 | -8.64884 | 4411 ft | 235 kts | 148° |
| 2026-05-05 15:17 | 40.91032 | -8.63387 | 4218 ft | 228 kts | 117° |
| 2026-05-05 15:17 | 40.90675 | -8.61429 | 4037 ft | 214 kts | 82° |
| 2026-05-05 15:17 | 40.91142 | -8.59714 | 3959 ft | 193 kts | 44° |
| 2026-05-05 15:18 | 40.92237 | -8.58753 | 3966 ft | 189 kts | 7° |
| 2026-05-05 15:18 | 40.93462 | -8.58892 | 3973 ft | 179 kts | 330° |
| 2026-05-05 15:18 | 40.94515 | -8.59811 | 3959 ft | 180 kts | 326° |
| 2026-05-05 15:18 | 40.95632 | -8.60523 | 4004 ft | 183 kts | 336° |
| 2026-05-05 15:19 | 40.96858 | -8.60991 | 3941 ft | 180 kts | 344° |
| 2026-05-05 15:19 | 40.98079 | -8.61282 | 3757 ft | 176 kts | 347° |
| 2026-05-05 15:19 | 40.99236 | -8.61502 | 3700 ft | 161 kts | 345° |
| 2026-05-05 15:19 | 41.00305 | -8.61775 | 3535 ft | 154 kts | 343° |
| 2026-05-05 15:20 | 41.01316 | -8.62073 | 3342 ft | 148 kts | 343° |
| 2026-05-05 15:20 | 41.02327 | -8.62371 | 2935 ft | 150 kts | 344° |
| 2026-05-05 15:20 | 41.03328 | -8.62629 | 2715 ft | 142 kts | 343° |
| 2026-05-05 15:20 | 41.04313 | -8.62883 | 2670 ft | 142 kts | 343° |
| 2026-05-05 15:21 | 41.05255 | -8.63117 | 2675 ft | 141 kts | 343° |
| 2026-05-05 15:21 | 41.06214 | -8.63363 | 2686 ft | 138 kts | 343° |
| 2026-05-05 15:21 | 41.07156 | -8.63615 | 2685 ft | 139 kts | 345° |
| 2026-05-05 15:21 | 41.08121 | -8.63863 | 2676 ft | 141 kts | 345° |
| 2026-05-05 15:22 | 41.09073 | -8.64108 | 2668 ft | 138 kts | 344° |
| 2026-05-05 15:22 | 41.10022 | -8.64356 | 2675 ft | 140 kts | 344° |
| 2026-05-05 15:22 | 41.10949 | -8.64581 | 2550 ft | 136 kts | 344° |
| 2026-05-05 15:22 | 41.11922 | -8.64823 | 2383 ft | 144 kts | 344° |
| 2026-05-05 15:23 | 41.12873 | -8.65031 | 2163 ft | 138 kts | 345° |
| 2026-05-05 15:23 | 41.13844 | -8.65264 | 2010 ft | 140 kts | 344° |
| 2026-05-05 15:23 | 41.14769 | -8.65496 | 1798 ft | 135 kts | 344° |
| 2026-05-05 15:23 | 41.15725 | -8.65743 | 1641 ft | 139 kts | 343° |
| 2026-05-05 15:24 | 41.16651 | -8.65982 | 1449 ft | 140 kts | 343° |
| 2026-05-05 15:24 | 41.17601 | -8.66243 | 1303 ft | 133 kts | 343° |
| 2026-05-05 15:24 | 41.18506 | -8.66489 | 1162 ft | 141 kts | 345° |
| 2026-05-05 15:24 | 41.19464 | -8.66757 | 1030 ft | 139 kts | 346° |
| 2026-05-05 15:25 | 41.20377 | -8.66996 | 834 ft | 131 kts | 348° |
| 2026-05-05 15:25 | 41.21287 | -8.67204 | 637 ft | 133 kts | 347° |
| 2026-05-05 15:25 | 41.22171 | -8.67419 | 478 ft | 130 kts | 345° |
| 2026-05-05 15:25 | 41.23092 | -8.67670 | 308 ft | 135 kts | 349° |
| 2026-05-05 15:26 | 41.23971 | -8.67891 | 226 ft | 117 kts | 350° |
| 2026-05-05 15:26 | 41.24611 | -8.68073 | 212 ft | 77 kts | 348° |
| 2026-05-05 15:26 | 41.24920 | -8.68133 | 208 ft | 33 kts | 359° |
| 2026-05-05 15:26 | 41.25131 | -8.68166 | 193 ft | 14 kts | 10° |
| 2026-05-05 15:27 | 41.25208 | -8.68138 | 196 ft | 16 kts | 18° |
| 2026-05-05 15:27 | 41.25267 | -8.68101 | 191 ft | 2 kts | 34° |
| 2026-05-05 15:27 | 41.25275 | -8.68037 | 189 ft | 6 kts | 119° |
| 2026-05-05 15:27 | 41.25271 | -8.68033 | 203 ft | 0 kts | 129° |
| 2026-05-05 15:28 | 41.25243 | -8.68011 | 199 ft | 8 kts | 159° |
| 2026-05-05 15:28 | 41.25198 | -8.67994 | 203 ft | 6 kts | 163° |
| 2026-05-05 15:29 | 41.25164 | -8.67983 | 200 ft | 4 kts | 165° |
| 2026-05-05 15:29 | 41.25141 | -8.67975 | 197 ft | 3 kts | 165° |
| 2026-05-05 15:29 | 41.25129 | -8.67971 | 203 ft | 1 kts | 167° |
| 2026-05-05 15:29 | 41.25125 | -8.67970 | 204 ft | 2 kts | 167° |
| 2026-05-05 15:30 | 41.25081 | -8.67956 | 209 ft | 12 kts | 167° |
| 2026-05-05 15:30 | 41.24967 | -8.67936 | 206 ft | 17 kts | 175° |
| 2026-05-05 15:30 | 41.24860 | -8.67895 | 211 ft | 15 kts | 161° |
| 2026-05-05 15:30 | 41.24776 | -8.67839 | 218 ft | 12 kts | 153° |
| 2026-05-05 15:31 | 41.24702 | -8.67811 | 218 ft | 10 kts | 168° |
| 2026-05-05 15:31 | 41.24640 | -8.67793 | 223 ft | 8 kts | 168° |
| 2026-05-05 15:31 | 41.24590 | -8.67779 | 226 ft | 7 kts | 168° |
| 2026-05-05 15:31 | 41.24551 | -8.67768 | 223 ft | 5 kts | 168° |
| 2026-05-05 15:32 | 41.24524 | -8.67760 | 224 ft | 3 kts | 168° |
| 2026-05-05 15:32 | 41.24507 | -8.67755 | 225 ft | 3 kts | 167° |
| 2026-05-05 15:32 | 41.24456 | -8.67742 | 229 ft | 13 kts | 166° |
| 2026-05-05 15:32 | 41.24340 | -8.67719 | 234 ft | 20 kts | 166° |
| 2026-05-05 15:33 | 41.24219 | -8.67576 | 243 ft | 27 kts | 126° |
| 2026-05-05 15:33 | 41.24106 | -8.67443 | 248 ft | 18 kts | 162° |
| 2026-05-05 15:33 | 41.23997 | -8.67424 | 247 ft | 11 kts | 189° |
| 2026-05-05 15:33 | 41.23960 | -8.67449 | 246 ft | 2 kts | 213° |
| 2026-05-05 15:34 | 41.23942 | -8.67458 | 246 ft | 3 kts | 201° |
| 2026-05-05 15:34 | 41.23926 | -8.67457 | 246 ft | 1 kts | 179° |
| 2026-05-05 15:34 | 41.23917 | -8.67453 | 246 ft | 2 kts | 166° |
| 2026-05-05 15:34 | 41.23906 | -8.67443 | 246 ft | 1 kts | 149° |
| 2026-05-05 15:35 | 41.23903 | -8.67439 | 247 ft | 0 kts | 143° |
| 2026-05-05 15:35 | 41.23901 | -8.67437 | 247 ft | 1 kts | 140° |
| 2026-05-05 15:35 | 41.23896 | -8.67425 | 247 ft | 0 kts | 127° |
| 2026-05-05 15:35 | 41.23893 | -8.67414 | 248 ft | 1 kts | 116° |
| 2026-05-05 15:36 | 41.23887 | -8.67392 | 249 ft | 3 kts | 114° |
| 2026-05-05 15:36 | 41.23882 | -8.67380 | 250 ft | 0 kts | 117° |
| 2026-05-05 15:36 | 41.23880 | -8.67378 | 250 ft | 0 kts | 122° |